createdAt,value
2023-02-01T04:37:23.320Z,99.90
2023-02-01T04:47:59.070Z,99.90
2023-02-01T04:58:34.947Z,99.90
2023-02-01T05:09:10.762Z,99.90
2023-02-01T05:19:46.470Z,99.90
2023-02-01T05:30:22.799Z,99.90
2023-02-01T05:40:58.791Z,99.90
2023-02-01T05:51:34.889Z,99.90
2023-02-01T06:02:11.266Z,99.90
2023-02-01T06:12:47.591Z,99.90
2023-02-01T06:23:24.696Z,99.90
2023-02-01T06:34:00.611Z,99.90
2023-02-01T06:44:36.407Z,99.90
2023-02-01T06:55:12.263Z,99.90
2023-02-01T07:05:49.448Z,99.90
2023-02-01T07:16:25.493Z,99.90
2023-02-01T07:27:01.189Z,99.90
2023-02-01T07:37:36.830Z,99.90
2023-02-01T07:48:12.289Z,99.90
2023-02-01T07:58:53.379Z,99.90
2023-02-01T08:09:28.953Z,93.40
2023-02-01T08:20:05.225Z,50.60
2023-02-01T08:30:42.932Z,77.20
2023-02-01T08:41:21.013Z,61.50
2023-02-01T08:51:58.432Z,47.50
2023-02-01T09:02:37.027Z,65.40
2023-02-01T09:13:12.437Z,80.50
2023-02-01T09:23:49.529Z,86.00
2023-02-01T09:34:25.027Z,83.20
2023-02-01T09:45:25.667Z,73.00
2023-02-01T09:56:05.599Z,63.80
2023-02-01T10:07:12.235Z,73.50
2023-02-01T10:18:00.565Z,70.90
2023-02-01T10:28:38.856Z,60.50
2023-02-01T10:39:15.899Z,68.40
2023-02-01T10:50:06.991Z,47.40
2023-02-01T11:00:48.953Z,40.80
2023-02-01T11:11:25.253Z,36.80
2023-02-01T11:22:01.806Z,38.60
2023-02-01T11:32:40.472Z,39.00
2023-02-01T11:43:28.335Z,37.10
2023-02-01T11:54:30.375Z,36.60
2023-02-01T12:05:48.900Z,37.20
2023-02-01T12:17:03.149Z,36.30
2023-02-01T12:27:58.619Z,32.60
2023-02-01T12:38:52.190Z,33.30
2023-02-01T12:49:46.934Z,32.60
2023-02-01T13:00:42.223Z,33.30
2023-02-01T13:11:25.819Z,34.00
2023-02-01T13:22:12.887Z,34.00
2023-02-01T13:33:53.390Z,35.70
2023-02-01T13:44:13.904Z,36.90
2023-02-01T13:54:49.483Z,38.90
2023-02-01T14:05:25.784Z,38.50
2023-02-01T14:16:04.713Z,37.20
2023-02-01T14:26:53.106Z,36.60
2023-02-01T14:37:34.483Z,38.30
2023-02-01T14:48:13.105Z,38.10
2023-02-01T14:59:02.733Z,38.40
2023-02-01T15:09:43.974Z,36.60
2023-02-01T15:20:25.876Z,35.00
2023-02-01T15:31:06.590Z,36.40
2023-02-01T15:41:43.337Z,33.40
2023-02-01T15:52:30.895Z,34.20
2023-02-01T16:03:24.332Z,34.60
2023-02-01T16:14:01.128Z,34.50
2023-02-01T16:24:36.892Z,35.90
2023-02-01T16:35:22.503Z,36.80
2023-02-01T16:46:03.400Z,36.50
2023-02-01T16:56:43.157Z,36.90
2023-02-01T17:07:19.943Z,38.10
2023-02-01T17:17:57.560Z,37.60
2023-02-01T17:28:33.424Z,38.40
2023-02-01T17:39:09.882Z,39.60
2023-02-01T17:49:45.413Z,41.70
2023-02-01T18:00:21.803Z,41.50
2023-02-01T18:11:00.610Z,41.10
2023-02-01T18:21:42.790Z,39.80
2023-02-01T18:32:18.301Z,39.40
2023-02-01T18:42:54.078Z,39.50
2023-02-01T18:53:30.178Z,39.50
2023-02-01T19:04:10.876Z,39.00
2023-02-01T19:14:57.120Z,38.90
2023-02-01T19:25:32.818Z,39.80
2023-02-01T19:36:10.684Z,39.80
2023-02-01T19:46:46.277Z,41.30
2023-02-01T19:57:21.974Z,41.40
2023-02-01T20:07:56.553Z,41.80
2023-02-01T20:18:32.159Z,41.80
2023-02-01T20:29:09.042Z,42.20
2023-02-01T20:39:45.113Z,42.50
2023-02-01T20:50:20.967Z,43.80
2023-02-01T21:00:57.008Z,42.90
2023-02-01T21:11:32.606Z,43.70
2023-02-01T21:22:09.770Z,42.70
2023-02-01T21:32:45.519Z,42.50
2023-02-01T21:43:21.185Z,42.80
2023-02-01T21:53:56.703Z,42.00
2023-02-01T22:04:32.944Z,42.80
2023-02-01T22:15:08.961Z,43.90
2023-02-01T22:25:44.387Z,44.40
